createdAt,value
2023-05-17T00:00:19.318Z,21.10
2023-05-17T00:02:21.120Z,21.20
2023-05-17T00:04:23.097Z,21.20
2023-05-17T00:06:25.013Z,21.20
2023-05-17T00:08:26.956Z,21.20
2023-05-17T00:10:28.745Z,21.20
2023-05-17T00:12:30.614Z,21.20
2023-05-17T00:14:32.469Z,21.10
2023-05-17T00:16:34.355Z,21.20
2023-05-17T00:18:36.206Z,21.10
2023-05-17T00:20:38.229Z,21.20
2023-05-17T00:22:40.169Z,21.10
2023-05-17T00:24:42.031Z,21.20
2023-05-17T00:26:43.814Z,21.20
2023-05-17T00:28:45.780Z,21.10
2023-05-17T00:30:49.317Z,21.20
2023-05-17T00:32:51.212Z,21.10
2023-05-17T00:34:53.609Z,21.10
2023-05-17T00:36:57.986Z,21.20
2023-05-17T00:38:59.764Z,21.10
2023-05-17T00:41:01.714Z,21.10
2023-05-17T00:43:03.509Z,21.10
2023-05-17T00:45:05.717Z,21.20
2023-05-17T00:47:07.576Z,21.10
2023-05-17T00:49:09.474Z,21.10
2023-05-17T00:51:11.897Z,21.10
2023-05-17T00:53:13.920Z,21.20
2023-05-17T00:55:15.985Z,21.20
2023-05-17T00:57:18.063Z,21.10
2023-05-17T00:59:21.132Z,21.20
2023-05-17T01:01:23.068Z,21.20
2023-05-17T01:03:24.957Z,21.20
2023-05-17T01:05:27.570Z,21.20
2023-05-17T01:07:30.842Z,21.20
2023-05-17T01:09:32.939Z,21.10
2023-05-17T01:11:44.668Z,21.10
2023-05-17T01:13:55.794Z,21.10
2023-05-17T01:16:12.907Z,21.10
2023-05-17T01:18:23.792Z,21.10
2023-05-17T01:20:31.530Z,21.10
2023-05-17T01:22:40.293Z,21.10
2023-05-17T01:25:00.812Z,21.10
2023-05-17T01:27:03.649Z,21.10
2023-05-17T01:29:05.961Z,21.00
2023-05-17T01:31:08.877Z,21.10
2023-05-17T01:33:12.718Z,21.00
2023-05-17T01:35:16.508Z,21.00
2023-05-17T01:37:18.342Z,21.00
2023-05-17T01:39:20.205Z,21.00
2023-05-17T01:41:21.980Z,21.00
2023-05-17T01:43:31.488Z,21.00
2023-05-17T01:45:45.729Z,21.00
2023-05-17T01:47:50.806Z,21.00
2023-05-17T01:49:54.035Z,21.00
2023-05-17T01:52:14.243Z,21.00
2023-05-17T01:54:20.432Z,21.00
2023-05-17T01:56:26.761Z,21.00
2023-05-17T01:58:29.569Z,21.00
2023-05-17T02:00:31.827Z,21.00
2023-05-17T02:02:33.655Z,21.00
2023-05-17T02:04:35.984Z,20.90
2023-05-17T02:06:37.813Z,21.00
2023-05-17T02:08:39.673Z,21.00
2023-05-17T02:10:41.826Z,21.00
2023-05-17T02:12:43.673Z,21.00
2023-05-17T02:14:45.435Z,21.00
2023-05-17T02:16:47.267Z,21.00
2023-05-17T02:18:49.245Z,21.00
2023-05-17T02:20:51.196Z,21.00
2023-05-17T02:22:53.005Z,21.00
2023-05-17T02:24:54.879Z,21.00
2023-05-17T02:26:56.629Z,21.00
2023-05-17T02:28:59.701Z,21.00
2023-05-17T02:31:01.538Z,20.90
2023-05-17T02:33:03.485Z,20.90
2023-05-17T02:35:05.570Z,21.00
2023-05-17T02:37:07.470Z,21.00
2023-05-17T02:39:09.282Z,20.90
2023-05-17T02:41:11.132Z,20.90
2023-05-17T02:43:13.130Z,20.90
2023-05-17T02:45:14.959Z,20.90
2023-05-17T02:47:16.846Z,20.90
2023-05-17T02:49:18.713Z,20.90
2023-05-17T02:51:20.471Z,20.90
2023-05-17T02:53:22.452Z,21.00
2023-05-17T02:55:24.335Z,21.00
2023-05-17T02:57:26.297Z,21.00
2023-05-17T02:59:28.639Z,20.90
2023-05-17T03:01:30.534Z,21.00
2023-05-17T03:03:32.496Z,21.00
2023-05-17T03:05:35.387Z,21.00
2023-05-17T03:07:37.701Z,21.00
2023-05-17T03:09:39.532Z,21.00
2023-05-17T03:11:41.323Z,20.90
2023-05-17T03:13:50.541Z,20.90
2023-05-17T03:15:55.313Z,20.90
2023-05-17T03:17:57.394Z,20.90
2023-05-17T03:22:02.132Z,20.90
2023-05-17T03:24:07.681Z,21.00
2023-05-17T03:26:11.205Z,21.00
2023-05-17T03:28:19.513Z,21.00
2023-05-17T03:30:21.801Z,21.00
2023-05-17T03:32:23.794Z,21.00
2023-05-17T03:34:25.608Z,21.00
2023-05-17T03:36:27.402Z,21.00
2023-05-17T03:38:29.299Z,20.90
2023-05-17T03:40:31.083Z,21.00
2023-05-17T03:42:34.217Z,21.00
2023-05-17T03:44:37.499Z,20.90
2023-05-17T03:46:39.484Z,20.90
2023-05-17T03:48:41.412Z,20.90
2023-05-17T03:50:44.330Z,20.90
2023-05-17T03:52:46.870Z,20.90
2023-05-17T03:54:48.743Z,20.90
2023-05-17T03:56:51.609Z,20.90
2023-05-17T03:58:53.707Z,20.90
2023-05-17T04:00:55.669Z,20.90
2023-05-17T04:02:57.554Z,20.90
2023-05-17T04:04:59.409Z,20.90
2023-05-17T04:07:01.330Z,20.90
2023-05-17T04:09:03.492Z,20.90
2023-05-17T04:11:05.446Z,20.90
2023-05-17T04:13:08.283Z,20.90
2023-05-17T04:15:11.094Z,20.90
2023-05-17T04:17:16.705Z,20.90
2023-05-17T04:19:19.164Z,20.90
2023-05-17T04:21:21.075Z,20.90
2023-05-17T04:23:23.332Z,20.90
2023-05-17T04:25:25.157Z,20.90
2023-05-17T04:27:27.054Z,20.90
2023-05-17T04:29:28.978Z,20.90
2023-05-17T04:31:31.466Z,20.90
2023-05-17T04:33:33.335Z,20.90
2023-05-17T04:35:35.328Z,21.00
2023-05-17T04:37:37.128Z,21.00
2023-05-17T04:39:47.019Z,20.90
2023-05-17T04:41:49.188Z,20.90
2023-05-17T04:43:52.887Z,20.90
2023-05-17T04:46:01.201Z,20.90
2023-05-17T04:48:04.417Z,21.00
2023-05-17T04:50:07.176Z,21.00
2023-05-17T04:52:10.555Z,20.90
2023-05-17T04:54:12.414Z,20.90
2023-05-17T04:56:15.301Z,20.90
2023-05-17T04:58:17.732Z,20.90
2023-05-17T05:00:24.017Z,21.00
2023-05-17T05:02:33.769Z,20.90
2023-05-17T05:04:35.921Z,20.90
2023-05-17T05:06:37.864Z,20.90
2023-05-17T05:08:39.811Z,20.90
2023-05-17T05:10:44.032Z,20.90
2023-05-17T05:12:46.546Z,20.90
2023-05-17T05:14:48.772Z,20.90
2023-05-17T05:16:50.853Z,20.90
2023-05-17T05:18:53.184Z,20.90
2023-05-17T05:20:55.378Z,20.90
2023-05-17T05:22:57.223Z,20.90
2023-05-17T05:24:59.044Z,20.90
2023-05-17T05:27:01.001Z,20.90
2023-05-17T05:29:03.260Z,20.90
2023-05-17T05:31:05.826Z,20.90
2023-05-17T05:33:15.749Z,20.90
2023-05-17T05:35:18.089Z,20.90
2023-05-17T05:37:19.974Z,20.90
2023-05-17T05:39:21.797Z,21.00
2023-05-17T05:41:23.751Z,20.90
2023-05-17T05:43:25.709Z,21.00
2023-05-17T05:45:27.599Z,20.90
2023-05-17T05:47:34.030Z,20.90
2023-05-17T05:49:36.027Z,20.90
2023-05-17T05:51:38.369Z,20.90
2023-05-17T05:53:40.214Z,21.00
2023-05-17T05:55:42.484Z,21.00
2023-05-17T05:57:44.769Z,21.00
2023-05-17T05:59:46.526Z,21.00
2023-05-17T06:01:48.384Z,21.00
2023-05-17T06:03:50.126Z,20.90
2023-05-17T06:05:51.994Z,21.00
2023-05-17T06:07:53.922Z,21.00
2023-05-17T06:09:55.728Z,20.90
2023-05-17T06:11:57.494Z,21.00
2023-05-17T06:13:59.341Z,20.90
2023-05-17T06:16:01.085Z,20.90
2023-05-17T06:18:03.047Z,20.90
2023-05-17T06:20:05.106Z,20.90
2023-05-17T06:22:06.986Z,20.90
2023-05-17T06:24:08.756Z,21.00
2023-05-17T06:26:10.595Z,21.00
2023-05-17T06:28:12.350Z,21.00
2023-05-17T06:30:14.187Z,21.00
2023-05-17T06:32:15.963Z,20.90
2023-05-17T06:34:17.781Z,21.00
2023-05-17T06:36:19.561Z,20.90
2023-05-17T06:38:21.430Z,21.00
2023-05-17T06:40:23.247Z,21.00
2023-05-17T06:42:25.027Z,21.00
2023-05-17T06:44:26.826Z,21.00
2023-05-17T06:46:28.666Z,21.00
2023-05-17T06:48:30.686Z,21.00
2023-05-17T06:50:32.836Z,21.00
2023-05-17T06:52:35.059Z,21.00
2023-05-17T06:54:37.449Z,21.10
2023-05-17T06:56:39.408Z,21.00
2023-05-17T06:58:41.356Z,21.10
2023-05-17T07:00:43.210Z,21.00
2023-05-17T07:02:45.145Z,21.00
2023-05-17T07:04:47.052Z,21.10
2023-05-17T07:06:48.999Z,21.10
2023-05-17T07:08:50.800Z,21.20
2023-05-17T07:10:52.868Z,21.10
2023-05-17T07:12:54.712Z,21.10
2023-05-17T07:14:56.590Z,21.10
2023-05-17T07:16:59.460Z,21.10
2023-05-17T07:19:01.365Z,21.10
2023-05-17T07:21:03.244Z,21.00
2023-05-17T07:23:05.048Z,21.00
2023-05-17T07:25:07.189Z,21.10
2023-05-17T07:27:09.048Z,21.00
2023-05-17T07:29:11.010Z,21.00
2023-05-17T07:31:12.825Z,21.10
2023-05-17T07:33:14.732Z,21.00
2023-05-17T07:35:16.612Z,20.80
2023-05-17T07:41:22.739Z,20.70
2023-05-17T07:43:24.966Z,20.80
2023-05-17T07:45:26.938Z,20.90
2023-05-17T07:47:29.845Z,20.90
2023-05-17T07:49:31.764Z,20.90
2023-05-17T07:51:34.607Z,20.90
2023-05-17T07:53:38.394Z,21.00
2023-05-17T07:55:40.262Z,20.90
2023-05-17T07:57:42.215Z,21.00
2023-05-17T07:59:44.050Z,21.00
2023-05-17T08:01:45.802Z,21.00
2023-05-17T08:03:48.073Z,21.10
2023-05-17T08:05:50.175Z,21.10
2023-05-17T08:07:51.991Z,21.00
2023-05-17T08:09:53.775Z,21.10
2023-05-17T08:11:55.586Z,21.10
2023-05-17T08:13:57.332Z,21.10
2023-05-17T08:16:08.852Z,21.10
2023-05-17T08:18:14.341Z,21.10
2023-05-17T08:20:16.223Z,21.10
2023-05-17T08:22:18.015Z,21.20
2023-05-17T08:24:19.901Z,21.20
2023-05-17T08:28:23.878Z,21.10
2023-05-17T08:30:28.895Z,21.20
2023-05-17T08:32:31.169Z,21.20
2023-05-17T08:34:32.971Z,21.20
2023-05-17T08:36:34.763Z,21.20
2023-05-17T08:38:36.575Z,21.20
2023-05-17T08:40:38.912Z,21.20
2023-05-17T08:42:41.710Z,21.20
2023-05-17T08:44:43.698Z,21.20
2023-05-17T08:46:46.963Z,21.20
2023-05-17T08:48:52.763Z,21.20
2023-05-17T08:50:55.728Z,21.20
2023-05-17T08:52:57.704Z,21.20
2023-05-17T08:54:59.883Z,21.10
2023-05-17T08:57:02.185Z,21.10
2023-05-17T08:59:05.757Z,21.10
2023-05-17T09:01:07.613Z,21.10
2023-05-17T09:03:09.541Z,21.10
2023-05-17T09:05:11.581Z,21.10
2023-05-17T09:07:14.651Z,21.10
2023-05-17T09:09:17.800Z,21.10
2023-05-17T09:11:26.459Z,21.10
2023-05-17T09:13:28.267Z,21.10
2023-05-17T09:15:31.749Z,21.10
2023-05-17T09:17:33.559Z,21.10
2023-05-17T09:19:42.859Z,21.10
2023-05-17T09:21:47.583Z,21.20
2023-05-17T09:24:01.770Z,21.20
2023-05-17T09:26:07.489Z,21.10
2023-05-17T09:28:09.247Z,21.10
2023-05-17T09:30:11.240Z,21.10
2023-05-17T09:32:14.324Z,21.10
2023-05-17T09:34:18.270Z,21.10
2023-05-17T09:36:21.510Z,21.10
2023-05-17T09:38:25.783Z,21.10
2023-05-17T09:40:27.622Z,21.10
2023-05-17T09:42:29.556Z,21.10
2023-05-17T09:44:31.374Z,21.20
2023-05-17T09:46:33.348Z,21.20
2023-05-17T09:48:38.107Z,21.10
2023-05-17T09:50:49.597Z,21.10
2023-05-17T09:52:51.424Z,21.20
2023-05-17T09:54:56.779Z,21.20
2023-05-17T09:57:00.607Z,21.20
2023-05-17T09:59:02.930Z,21.20
2023-05-17T10:01:05.615Z,21.20
2023-05-17T10:03:08.105Z,21.20
2023-05-17T10:05:11.327Z,21.20
2023-05-17T10:07:13.518Z,21.20
2023-05-17T10:09:15.265Z,21.20
2023-05-17T10:11:18.135Z,21.20
2023-05-17T10:13:24.223Z,21.20
2023-05-17T10:15:26.479Z,21.20
2023-05-17T10:17:28.474Z,21.20
2023-05-17T10:19:30.703Z,21.20
2023-05-17T10:21:32.891Z,21.20
2023-05-17T10:23:35.874Z,21.20
2023-05-17T10:25:38.174Z,21.20
2023-05-17T10:27:40.108Z,21.20
2023-05-17T10:29:42.132Z,21.20
2023-05-17T10:31:45.297Z,21.20
2023-05-17T10:33:47.440Z,21.20
2023-05-17T10:35:49.719Z,21.30
2023-05-17T10:37:51.620Z,21.30
2023-05-17T10:39:53.480Z,21.30
2023-05-17T10:42:07.156Z,21.30
2023-05-17T10:44:16.736Z,21.30
2023-05-17T10:46:19.646Z,21.30
2023-05-17T10:48:21.676Z,21.20
2023-05-17T10:50:24.327Z,21.20
2023-05-17T10:52:26.233Z,21.30
2023-05-17T10:54:34.770Z,21.20
2023-05-17T10:56:39.458Z,21.20
2023-05-17T10:58:41.264Z,21.30
2023-05-17T11:00:50.071Z,21.30
2023-05-17T11:02:51.928Z,21.30
2023-05-17T11:04:53.842Z,21.10
2023-05-17T11:07:15.861Z,21.30
2023-05-17T11:09:17.714Z,21.30
2023-05-17T11:11:19.745Z,21.30
2023-05-17T11:13:22.342Z,21.30
2023-05-17T11:15:24.878Z,21.30
2023-05-17T11:17:35.820Z,21.30
2023-05-17T11:19:37.803Z,21.30
2023-05-17T11:21:46.018Z,21.30
2023-05-17T11:23:48.577Z,21.30
2023-05-17T11:25:50.794Z,21.40
2023-05-17T11:27:52.630Z,21.30
2023-05-17T11:29:54.649Z,21.30
2023-05-17T11:31:56.488Z,21.40
2023-05-17T11:33:58.430Z,21.30
2023-05-17T11:36:05.033Z,21.20
2023-05-17T11:38:23.264Z,21.40
2023-05-17T11:40:25.956Z,21.40
2023-05-17T11:42:27.835Z,21.30
2023-05-17T11:44:30.643Z,21.30
2023-05-17T11:46:32.728Z,21.40
2023-05-17T11:48:34.785Z,21.40
2023-05-17T11:50:37.266Z,21.40
2023-05-17T11:52:40.280Z,21.40
2023-05-17T11:54:42.268Z,21.40
2023-05-17T11:56:44.583Z,21.40
2023-05-17T11:58:50.580Z,21.40
2023-05-17T12:00:53.379Z,21.40
2023-05-17T12:02:55.235Z,21.30
2023-05-17T12:04:57.370Z,21.40
2023-05-17T12:06:59.269Z,21.30
2023-05-17T12:09:01.271Z,21.40
2023-05-17T12:11:04.260Z,21.30
2023-05-17T12:13:06.786Z,21.30
2023-05-17T12:15:08.769Z,21.40
2023-05-17T12:17:12.371Z,21.40
2023-05-17T12:19:18.034Z,21.40
2023-05-17T12:21:19.937Z,21.40
2023-05-17T12:23:38.301Z,21.20
2023-05-17T12:25:40.141Z,21.20
2023-05-17T12:27:42.025Z,21.10
2023-05-17T12:29:43.822Z,21.10
2023-05-17T12:31:48.211Z,21.00
2023-05-17T12:33:50.164Z,21.00
2023-05-17T12:35:52.193Z,21.00
2023-05-17T12:37:54.003Z,20.90
2023-05-17T12:39:55.930Z,20.80
2023-05-17T12:41:57.749Z,20.80
2023-05-17T12:44:13.515Z,20.90
2023-05-17T12:46:17.513Z,21.00
2023-05-17T12:48:19.511Z,21.10
2023-05-17T12:50:31.224Z,21.10
2023-05-17T12:52:33.975Z,21.10
2023-05-17T12:54:35.790Z,21.10
2023-05-17T12:56:37.798Z,21.20
2023-05-17T12:58:39.577Z,21.20
2023-05-17T13:00:55.467Z,21.20
2023-05-17T13:02:57.352Z,21.20
2023-05-17T13:04:59.250Z,21.20
2023-05-17T13:07:02.058Z,21.20
2023-05-17T13:09:06.416Z,21.20
2023-05-17T13:11:13.199Z,21.20
2023-05-17T13:13:20.357Z,21.20
2023-05-17T13:15:26.760Z,21.20
2023-05-17T13:17:35.292Z,21.20
2023-05-17T13:19:37.581Z,21.20
2023-05-17T13:21:39.600Z,21.30
2023-05-17T13:23:44.703Z,21.20
2023-05-17T13:25:46.549Z,21.20
2023-05-17T13:27:48.310Z,21.20
2023-05-17T13:29:50.120Z,21.20
2023-05-17T13:31:52.104Z,21.20
2023-05-17T13:33:53.984Z,21.30
2023-05-17T13:35:55.816Z,21.30
2023-05-17T13:37:57.766Z,21.30
2023-05-17T13:39:59.526Z,21.30
2023-05-17T13:42:01.370Z,21.30
2023-05-17T13:44:03.330Z,21.30
2023-05-17T13:46:05.246Z,21.40
2023-05-17T13:48:07.093Z,21.30
2023-05-17T13:50:09.669Z,21.30
2023-05-17T13:52:11.535Z,21.40
2023-05-17T13:54:13.355Z,21.40
2023-05-17T13:56:15.179Z,21.40
2023-05-17T13:58:17.070Z,21.40
2023-05-17T14:00:19.037Z,21.40
2023-05-17T14:02:20.873Z,21.40
2023-05-17T14:04:22.650Z,21.40
2023-05-17T14:06:24.590Z,21.40
2023-05-17T14:08:26.514Z,21.40
2023-05-17T14:10:28.597Z,21.40
2023-05-17T14:12:30.583Z,21.50
2023-05-17T14:14:32.469Z,21.50
2023-05-17T14:16:34.259Z,21.50
2023-05-17T14:18:36.814Z,21.40
2023-05-17T14:20:38.774Z,21.40
2023-05-17T14:22:41.157Z,21.40
2023-05-17T14:24:42.934Z,21.50
2023-05-17T14:26:44.773Z,21.50
2023-05-17T14:28:46.512Z,21.50
2023-05-17T14:30:48.318Z,21.50
2023-05-17T14:32:50.166Z,21.50
2023-05-17T14:34:52.050Z,21.50
2023-05-17T14:36:53.788Z,21.50
2023-05-17T14:38:55.638Z,21.50
2023-05-17T14:40:57.923Z,21.50
2023-05-17T14:42:59.987Z,21.50
2023-05-17T14:45:01.945Z,21.50
2023-05-17T14:47:03.861Z,21.50
2023-05-17T14:49:05.648Z,21.50
2023-05-17T14:51:07.532Z,21.50
2023-05-17T14:53:09.294Z,21.50
2023-05-17T14:55:11.105Z,21.50
2023-05-17T14:57:12.915Z,21.50
2023-05-17T14:59:14.722Z,21.60
2023-05-17T15:01:16.591Z,21.60
2023-05-17T15:03:21.768Z,21.60
2023-05-17T15:05:24.502Z,21.60
2023-05-17T15:07:26.431Z,21.60
2023-05-17T15:09:28.231Z,21.60
2023-05-17T15:11:30.199Z,21.60
2023-05-17T15:13:31.958Z,21.60
2023-05-17T15:15:33.811Z,21.60
2023-05-17T15:17:35.656Z,21.60
2023-05-17T15:19:37.736Z,21.60
2023-05-17T15:21:39.591Z,21.60
2023-05-17T15:23:41.417Z,21.60
2023-05-17T15:25:43.162Z,21.60
2023-05-17T15:27:45.010Z,21.60
2023-05-17T15:29:46.770Z,21.60
2023-05-17T15:31:48.603Z,21.60
2023-05-17T15:33:50.752Z,21.60
2023-05-17T15:35:52.648Z,21.60
2023-05-17T15:37:54.406Z,21.60
2023-05-17T15:39:56.254Z,21.60
2023-05-17T15:41:58.006Z,21.60
2023-05-17T15:43:59.827Z,21.60
2023-05-17T15:46:01.592Z,21.60
2023-05-17T15:48:03.575Z,21.60
2023-05-17T15:50:05.636Z,21.60
2023-05-17T15:52:07.486Z,21.60
2023-05-17T15:54:09.225Z,21.60
2023-05-17T15:56:11.034Z,21.60
2023-05-17T15:58:12.812Z,21.60
2023-05-17T16:00:14.796Z,21.60
2023-05-17T16:02:16.542Z,21.60
2023-05-17T16:04:18.398Z,21.60
2023-05-17T16:06:20.195Z,21.60
2023-05-17T16:08:22.035Z,21.60
2023-05-17T16:10:23.818Z,21.60
2023-05-17T16:12:25.685Z,21.60
2023-05-17T16:14:27.442Z,21.50
2023-05-17T16:16:29.348Z,21.40
2023-05-17T16:18:31.605Z,21.40
2023-05-17T16:20:33.627Z,21.30
2023-05-17T16:22:35.667Z,21.20
2023-05-17T16:24:37.555Z,21.10
2023-05-17T16:26:39.330Z,21.10
2023-05-17T16:28:41.238Z,21.10
2023-05-17T16:30:43.117Z,21.10
2023-05-17T16:32:45.588Z,21.10
2023-05-17T16:34:47.390Z,21.10
2023-05-17T16:36:49.208Z,21.10
2023-05-17T16:38:50.945Z,21.20
2023-05-17T16:40:52.807Z,21.20
2023-05-17T16:42:54.572Z,21.20
2023-05-17T16:44:56.491Z,21.20
2023-05-17T16:47:00.296Z,21.20
2023-05-17T16:49:02.175Z,21.20
2023-05-17T16:51:04.037Z,21.20
2023-05-17T16:53:05.916Z,21.30
2023-05-17T16:55:07.857Z,21.30
2023-05-17T16:57:09.845Z,21.30
2023-05-17T16:59:11.652Z,21.30
2023-05-17T17:01:13.687Z,21.30
2023-05-17T17:03:15.514Z,21.30
2023-05-17T17:05:17.453Z,21.30
2023-05-17T17:07:19.238Z,21.30
2023-05-17T17:09:21.060Z,21.30
2023-05-17T17:11:22.864Z,21.30
2023-05-17T17:13:24.740Z,21.30
2023-05-17T17:15:26.478Z,21.30
2023-05-17T17:17:29.337Z,21.30
2023-05-17T17:19:31.160Z,21.30
2023-05-17T17:21:33.002Z,21.30
2023-05-17T17:23:34.798Z,21.30
2023-05-17T17:25:36.678Z,21.30
2023-05-17T17:27:38.403Z,21.30
2023-05-17T17:29:40.246Z,21.30
2023-05-17T17:31:42.144Z,21.30
2023-05-17T17:33:44.037Z,21.30
2023-05-17T17:35:45.832Z,21.30
2023-05-17T17:37:47.710Z,21.30
2023-05-17T17:39:49.465Z,21.30
2023-05-17T17:41:51.320Z,21.30
2023-05-17T17:43:53.108Z,21.30
2023-05-17T17:45:54.958Z,21.20
2023-05-17T17:47:56.764Z,21.20
2023-05-17T17:49:58.857Z,21.20
2023-05-17T17:52:00.706Z,21.20
2023-05-17T17:54:02.590Z,21.20
2023-05-17T17:56:04.450Z,21.20
2023-05-17T17:58:06.261Z,21.20
2023-05-17T18:00:10.965Z,21.20
2023-05-17T18:02:14.098Z,21.20
2023-05-17T18:04:15.875Z,21.20
2023-05-17T18:06:17.720Z,21.20
2023-05-17T18:08:19.475Z,21.20
2023-05-17T18:10:21.291Z,21.20
2023-05-17T18:12:23.320Z,21.10
2023-05-17T18:14:25.188Z,21.10
2023-05-17T18:16:27.007Z,21.10
2023-05-17T18:18:28.949Z,21.10
2023-05-17T18:20:30.905Z,21.10
2023-05-17T18:22:33.050Z,21.10
2023-05-17T18:24:34.872Z,21.10
2023-05-17T18:26:36.703Z,21.10
2023-05-17T18:28:42.314Z,21.10
2023-05-17T18:30:45.043Z,21.10
2023-05-17T18:32:46.895Z,21.10
2023-05-17T18:34:48.816Z,21.00
2023-05-17T18:36:50.600Z,21.00
2023-05-17T18:38:52.461Z,21.00
2023-05-17T18:40:54.224Z,21.00
2023-05-17T18:42:56.057Z,21.00
2023-05-17T18:44:57.787Z,21.00
2023-05-17T18:46:59.652Z,21.00
2023-05-17T18:49:01.440Z,21.00
2023-05-17T18:51:03.348Z,21.00
2023-05-17T18:53:05.153Z,21.00
2023-05-17T18:55:07.137Z,21.00
2023-05-17T18:57:08.926Z,21.00
2023-05-17T18:59:10.743Z,21.00
2023-05-17T19:01:12.690Z,21.00
2023-05-17T19:03:14.581Z,21.00
2023-05-17T19:05:16.340Z,21.00
2023-05-17T19:07:18.189Z,21.00
2023-05-17T19:09:20.142Z,21.00
2023-05-17T19:11:22.044Z,21.00
2023-05-17T19:13:23.813Z,21.00
2023-05-17T19:15:25.742Z,21.00
2023-05-17T19:17:27.588Z,21.00
2023-05-17T19:19:29.528Z,21.00
2023-05-17T19:21:31.323Z,20.90
2023-05-17T19:23:33.283Z,20.90
2023-05-17T19:25:35.108Z,20.90
2023-05-17T19:27:36.927Z,20.90
2023-05-17T19:29:38.679Z,20.90
2023-05-17T19:31:40.638Z,20.90
2023-05-17T19:33:42.450Z,20.90
2023-05-17T19:35:44.569Z,20.90
2023-05-17T19:37:46.404Z,20.90
2023-05-17T19:39:48.291Z,20.90
2023-05-17T19:41:50.221Z,20.90
2023-05-17T19:43:52.016Z,20.90
2023-05-17T19:45:53.874Z,20.90
2023-05-17T19:47:55.773Z,20.90
2023-05-17T19:49:57.597Z,20.90
2023-05-17T19:51:59.454Z,20.90
2023-05-17T19:54:01.220Z,20.90
2023-05-17T19:56:03.106Z,20.90
2023-05-17T19:58:04.886Z,20.90
2023-05-17T20:00:07.091Z,20.90
2023-05-17T20:02:09.300Z,20.90
2023-05-17T20:04:11.410Z,20.90
2023-05-17T20:06:13.337Z,20.90
2023-05-17T20:08:15.300Z,20.90
2023-05-17T20:10:17.090Z,20.90
2023-05-17T20:12:19.201Z,20.80
2023-05-17T20:14:21.086Z,20.80
2023-05-17T20:16:23.015Z,20.80
2023-05-17T20:18:24.850Z,20.80
2023-05-17T20:20:26.787Z,20.80
2023-05-17T20:22:28.615Z,20.80
2023-05-17T20:24:30.692Z,20.80
2023-05-17T20:26:32.787Z,20.80
2023-05-17T20:28:34.639Z,20.80
2023-05-17T20:30:36.496Z,20.80
2023-05-17T20:32:38.600Z,20.80
2023-05-17T20:34:40.466Z,20.80
2023-05-17T20:36:42.364Z,20.80
2023-05-17T20:38:44.393Z,20.80
2023-05-17T20:40:46.300Z,20.80
2023-05-17T20:42:48.200Z,20.80
2023-05-17T20:44:50.087Z,20.80
2023-05-17T20:46:52.056Z,20.80
2023-05-17T20:48:53.941Z,20.90
2023-05-17T20:50:55.817Z,20.80
2023-05-17T20:52:57.639Z,20.90
2023-05-17T20:54:59.406Z,20.90
2023-05-17T20:57:01.523Z,20.90
2023-05-17T20:59:03.740Z,20.90
2023-05-17T21:01:05.622Z,21.00
2023-05-17T21:03:07.613Z,21.00
2023-05-17T21:05:09.534Z,21.00
2023-05-17T21:07:11.293Z,21.00
2023-05-17T21:09:13.256Z,21.00
2023-05-17T21:11:14.988Z,21.00
2023-05-17T21:13:16.897Z,21.00
2023-05-17T21:15:18.705Z,21.00
2023-05-17T21:17:20.560Z,21.00
2023-05-17T21:19:22.381Z,21.00
2023-05-17T21:21:24.262Z,21.00
2023-05-17T21:23:26.050Z,21.00
2023-05-17T21:25:27.983Z,21.00
2023-05-17T21:27:29.857Z,21.00
2023-05-17T21:29:31.667Z,21.00
2023-05-17T21:31:33.412Z,21.00
2023-05-17T21:33:35.385Z,21.00
2023-05-17T21:35:37.237Z,21.00
2023-05-17T21:37:39.073Z,21.00
2023-05-17T21:39:40.888Z,21.00
2023-05-17T21:41:42.757Z,21.00
2023-05-17T21:43:44.520Z,21.00
2023-05-17T21:45:46.342Z,21.00
2023-05-17T21:47:48.160Z,21.00
2023-05-17T21:49:50.163Z,21.00
2023-05-17T21:51:52.062Z,21.00
2023-05-17T21:53:53.861Z,21.00
2023-05-17T21:56:02.061Z,21.00
2023-05-17T21:58:04.978Z,20.90
2023-05-17T22:00:07.086Z,21.00
2023-05-17T22:02:08.869Z,21.00
2023-05-17T22:04:10.915Z,20.90
2023-05-17T22:06:12.717Z,20.90
2023-05-17T22:08:14.489Z,20.90
2023-05-17T22:10:16.331Z,20.90
2023-05-17T22:12:18.070Z,20.90
2023-05-17T22:14:19.919Z,20.90
2023-05-17T22:16:21.763Z,20.90
2023-05-17T22:18:23.624Z,20.90
2023-05-17T22:20:25.394Z,20.90
2023-05-17T22:22:27.270Z,20.90
2023-05-17T22:24:29.051Z,20.90
2023-05-17T22:26:30.967Z,20.90
2023-05-17T22:28:32.759Z,20.90
2023-05-17T22:30:34.730Z,20.90
2023-05-17T22:32:36.500Z,20.90
2023-05-17T22:34:38.593Z,20.90
2023-05-17T22:36:40.347Z,20.90
2023-05-17T22:38:42.341Z,20.90
2023-05-17T22:40:44.158Z,20.90
2023-05-17T22:42:46.152Z,20.90
2023-05-17T22:44:47.966Z,20.90
2023-05-17T22:46:49.857Z,20.90
2023-05-17T22:48:51.686Z,20.90
2023-05-17T22:50:53.492Z,20.90
2023-05-17T22:52:55.303Z,20.90
2023-05-17T22:54:57.132Z,20.90
2023-05-17T22:56:59.062Z,20.90
2023-05-17T22:59:00.879Z,20.90
2023-05-17T23:01:02.678Z,20.90
2023-05-17T23:03:04.578Z,20.90
2023-05-17T23:05:06.500Z,20.90
2023-05-17T23:07:08.311Z,20.90
2023-05-17T23:09:10.046Z,20.80
2023-05-17T23:11:11.877Z,20.90
2023-05-17T23:13:13.693Z,20.90
2023-05-17T23:15:15.508Z,20.90
2023-05-17T23:17:17.282Z,20.90
2023-05-17T23:19:19.285Z,20.90
2023-05-17T23:21:21.084Z,20.80
2023-05-17T23:23:22.980Z,20.90
2023-05-17T23:25:24.955Z,20.90
2023-05-17T23:27:26.800Z,20.90
2023-05-17T23:29:28.584Z,20.90
2023-05-17T23:31:30.511Z,20.90
2023-05-17T23:33:32.320Z,20.90
2023-05-17T23:35:34.217Z,20.90
2023-05-17T23:37:36.453Z,20.90
2023-05-17T23:39:38.246Z,20.90
2023-05-17T23:41:40.102Z,20.90
2023-05-17T23:43:41.904Z,20.90
2023-05-17T23:45:43.650Z,20.90
2023-05-17T23:47:45.524Z,20.90
2023-05-17T23:49:47.440Z,20.90
2023-05-17T23:51:49.302Z,20.90
2023-05-17T23:53:51.114Z,20.80
2023-05-17T23:55:52.933Z,20.90
2023-05-17T23:57:54.687Z,20.80
2023-05-17T23:59:56.569Z,20.90
